createdAt,value
2019-05-05T00:00:56.129Z,5.04
2019-05-05T00:01:56.092Z,4.96
2019-05-05T00:02:56.077Z,5.02
2019-05-05T00:03:56.047Z,4.99
2019-05-05T00:04:56.032Z,5.02
2019-05-05T00:05:56.007Z,4.94
2019-05-05T00:06:55.981Z,5.02
2019-05-05T00:07:55.961Z,5.03
2019-05-05T00:08:55.937Z,4.92
2019-05-05T00:09:55.918Z,4.92
2019-05-05T00:10:57.065Z,4.94
2019-05-05T00:11:55.877Z,5.03
2019-05-05T00:12:55.855Z,4.97
2019-05-05T00:13:55.826Z,4.99
2019-05-05T00:14:55.805Z,4.85
2019-05-05T00:15:55.782Z,4.94
2019-05-05T00:16:55.763Z,4.85
2019-05-05T00:17:55.741Z,4.85
2019-05-05T00:18:55.718Z,4.85
2019-05-05T00:19:55.698Z,4.91
2019-05-05T00:20:55.685Z,4.86
2019-05-05T00:21:55.652Z,4.92
2019-05-05T00:22:55.632Z,4.91
2019-05-05T00:23:55.609Z,4.91
2019-05-05T00:24:55.589Z,4.88
2019-05-05T00:25:55.564Z,4.91
2019-05-05T00:26:55.543Z,4.85
2019-05-05T00:27:55.522Z,4.78
2019-05-05T00:28:55.517Z,4.86
2019-05-05T00:29:55.479Z,4.77
2019-05-05T00:30:55.515Z,4.75
2019-05-05T00:31:55.440Z,4.82
2019-05-05T00:32:55.414Z,4.72
2019-05-05T00:33:55.391Z,4.70
2019-05-05T00:34:55.369Z,4.78
2019-05-05T00:35:55.348Z,4.67
2019-05-05T00:36:55.459Z,4.75
2019-05-05T00:37:55.307Z,4.63
2019-05-05T00:38:55.407Z,4.66
2019-05-05T00:39:55.262Z,4.70
2019-05-05T00:40:55.247Z,4.67
2019-05-05T00:41:55.585Z,4.63
2019-05-05T00:42:55.193Z,4.69
2019-05-05T00:43:55.480Z,4.63
2019-05-05T00:44:55.146Z,4.63
2019-05-05T00:45:55.696Z,4.63
2019-05-05T00:46:55.171Z,4.69
2019-05-05T00:47:55.080Z,4.65
2019-05-05T00:48:55.173Z,4.63
2019-05-05T00:49:56.294Z,4.65
2019-05-05T00:50:55.657Z,4.66
2019-05-05T00:51:54.992Z,4.66
2019-05-05T00:52:55.204Z,4.65
2019-05-05T00:53:55.554Z,4.69
2019-05-05T00:54:55.583Z,4.65
2019-05-05T00:55:54.906Z,4.60
2019-05-05T00:56:54.887Z,4.66
2019-05-05T00:57:55.005Z,4.67
2019-05-05T00:58:55.346Z,4.73
2019-05-05T00:59:54.818Z,4.67
2019-05-05T01:00:54.908Z,4.59
2019-05-05T01:01:55.365Z,4.72
2019-05-05T01:02:54.754Z,4.67
2019-05-05T01:03:54.740Z,4.73
2019-05-05T01:04:55.142Z,4.69
2019-05-05T01:05:55.327Z,4.66
2019-05-05T01:06:54.667Z,4.70
2019-05-05T01:07:54.819Z,4.67
2019-05-05T01:08:55.089Z,4.65
2019-05-05T01:09:54.598Z,4.63
2019-05-05T01:10:54.827Z,4.60
2019-05-05T01:11:55.062Z,4.55
2019-05-05T01:12:54.609Z,4.63
2019-05-05T01:13:54.786Z,4.59
2019-05-05T01:14:55.285Z,4.59
2019-05-05T01:15:54.464Z,4.65
2019-05-05T01:16:54.656Z,4.59
2019-05-05T01:17:55.305Z,4.48
2019-05-05T01:18:55.363Z,4.52
2019-05-05T01:20:03.334Z,4.52
2019-05-05T01:20:55.234Z,4.50
2019-05-05T01:21:54.514Z,4.48
2019-05-05T01:22:55.274Z,4.42
2019-05-05T01:23:54.910Z,4.47
2019-05-05T01:24:55.412Z,4.45
2019-05-05T01:25:54.486Z,4.47
2019-05-05T01:26:55.128Z,4.44
2019-05-05T01:27:54.630Z,4.37
2019-05-05T01:28:56.178Z,4.42
2019-05-05T01:29:54.671Z,4.36
2019-05-05T01:30:54.966Z,4.27
2019-05-05T01:31:54.427Z,4.27
2019-05-05T01:32:55.983Z,4.29
2019-05-05T01:33:54.243Z,4.18
2019-05-05T01:34:54.907Z,4.23
2019-05-05T01:35:55.219Z,4.18
2019-05-05T01:36:54.419Z,4.18
2019-05-05T01:37:54.839Z,4.15
2019-05-05T01:38:55.222Z,4.11
2019-05-05T01:39:54.266Z,4.09
2019-05-05T01:40:54.739Z,4.08
2019-05-05T01:41:54.346Z,4.00
2019-05-05T01:42:54.735Z,3.98
2019-05-05T01:43:54.265Z,3.98
2019-05-05T01:44:55.247Z,3.87
2019-05-05T01:45:54.644Z,3.94
2019-05-05T01:46:55.047Z,3.94
2019-05-05T01:47:54.537Z,3.83
2019-05-05T01:48:54.934Z,3.83
2019-05-05T01:49:54.488Z,3.69
2019-05-05T01:50:54.398Z,3.75
2019-05-05T01:51:55.294Z,3.65
2019-05-05T01:52:55.424Z,3.65
2019-05-05T01:53:54.556Z,3.58
2019-05-05T01:54:54.788Z,3.55
2019-05-05T01:55:54.234Z,3.47
2019-05-05T01:56:55.402Z,3.50
2019-05-05T01:57:54.365Z,3.47
2019-05-05T01:58:54.737Z,3.40
2019-05-05T01:59:55.244Z,3.36
2019-05-05T02:00:54.596Z,3.40
2019-05-05T02:01:55.106Z,3.35
2019-05-05T02:02:55.238Z,3.33
2019-05-05T02:03:54.885Z,3.43
2019-05-05T02:04:55.359Z,3.43
2019-05-05T02:05:54.607Z,3.29
2019-05-05T02:06:54.985Z,3.32
2019-05-05T02:07:55.175Z,3.32
2019-05-05T02:08:54.801Z,3.14
2019-05-05T02:09:55.302Z,3.18
2019-05-05T02:10:54.801Z,3.17
2019-05-05T02:11:54.749Z,3.17
2019-05-05T02:12:55.112Z,3.11
2019-05-05T02:13:54.554Z,3.14
2019-05-05T02:14:55.114Z,3.20
2019-05-05T02:15:55.186Z,3.15
2019-05-05T02:16:54.568Z,3.10
2019-05-05T02:17:55.006Z,3.08
2019-05-05T02:18:54.404Z,3.05
2019-05-05T02:19:54.957Z,3.03
2019-05-05T02:20:54.325Z,2.95
2019-05-05T02:21:54.749Z,2.96
2019-05-05T02:22:55.067Z,2.95
2019-05-05T02:23:54.808Z,2.95
2019-05-05T02:24:54.919Z,2.89
2019-05-05T02:25:55.201Z,2.85
2019-05-05T02:26:54.506Z,2.85
2019-05-05T02:27:54.805Z,2.89
2019-05-05T02:28:54.238Z,2.92
2019-05-05T02:29:54.781Z,2.84
2019-05-05T02:30:55.023Z,2.72
2019-05-05T02:31:55.092Z,2.84
2019-05-05T02:32:55.198Z,2.75
2019-05-05T02:33:52.737Z,2.64
2019-05-05T02:34:55.924Z,2.63
2019-05-05T02:35:55.417Z,2.60
2019-05-05T02:36:52.667Z,2.63
2019-05-05T02:37:55.556Z,2.67
2019-05-05T02:38:52.623Z,2.57
2019-05-05T02:40:02.308Z,2.54
2019-05-05T02:40:54.866Z,2.45
2019-05-05T02:41:54.801Z,2.49
2019-05-05T02:42:54.878Z,2.53
2019-05-05T02:43:55.489Z,2.45
2019-05-05T02:44:54.376Z,2.41
2019-05-05T02:45:55.108Z,2.43
2019-05-05T02:46:55.013Z,2.39
2019-05-05T02:47:54.962Z,2.42
2019-05-05T02:48:54.882Z,2.35
2019-05-05T02:49:54.926Z,2.35
2019-05-05T02:50:55.902Z,2.30
2019-05-05T02:51:55.129Z,2.35
2019-05-05T02:52:53.512Z,2.30
2019-05-05T02:53:53.708Z,2.21
2019-05-05T02:54:53.660Z,2.10
2019-05-05T02:55:53.407Z,2.05
2019-05-05T02:56:54.082Z,2.00
2019-05-05T02:57:54.316Z,2.00
2019-05-05T02:58:53.710Z,2.00
2019-05-05T02:59:53.961Z,1.88
2019-05-05T03:00:54.119Z,1.86
2019-05-05T03:01:53.833Z,1.84
2019-05-05T03:02:53.893Z,1.79
2019-05-05T03:03:54.154Z,1.73
2019-05-05T03:04:53.636Z,1.73
2019-05-05T03:05:53.827Z,1.77
2019-05-05T03:06:54.050Z,1.72
2019-05-05T03:07:51.964Z,1.77
2019-05-05T03:08:54.134Z,1.72
2019-05-05T03:09:51.922Z,1.72
2019-05-05T03:10:53.596Z,1.77
2019-05-05T03:11:53.993Z,1.73
2019-05-05T03:12:51.856Z,1.76
2019-05-05T03:13:53.501Z,1.69
2019-05-05T03:14:53.690Z,1.76
2019-05-05T03:15:51.785Z,1.80
2019-05-05T03:16:53.623Z,1.86
2019-05-05T03:17:53.353Z,1.84
2019-05-05T03:18:51.714Z,1.84
2019-05-05T03:19:53.535Z,1.81
2019-05-05T03:21:02.399Z,1.86
2019-05-05T03:21:51.648Z,1.88
2019-05-05T03:22:51.623Z,1.87
2019-05-05T03:23:51.601Z,1.83
2019-05-05T03:24:51.581Z,1.87
2019-05-05T03:25:51.555Z,1.83
2019-05-05T03:26:53.576Z,1.83
2019-05-05T03:27:51.509Z,1.81
2019-05-05T03:28:51.490Z,1.84
2019-05-05T03:29:53.464Z,1.80
2019-05-05T03:30:51.457Z,1.80
2019-05-05T03:31:51.421Z,1.80
2019-05-05T03:32:51.406Z,1.83
2019-05-05T03:33:54.695Z,1.83
2019-05-05T03:34:53.567Z,1.86
2019-05-05T03:35:51.327Z,1.83
2019-05-05T03:36:53.485Z,1.90
2019-05-05T03:37:51.282Z,1.86
2019-05-05T03:38:51.263Z,1.90
2019-05-05T03:39:51.239Z,1.90
2019-05-05T03:40:51.212Z,1.86
2019-05-05T03:41:51.190Z,1.86
2019-05-05T03:42:51.166Z,1.93
2019-05-05T03:43:51.147Z,1.86
2019-05-05T03:44:51.127Z,1.86
2019-05-05T03:45:51.107Z,1.83
2019-05-05T03:46:51.082Z,1.84
2019-05-05T03:47:51.057Z,1.86
2019-05-05T03:48:51.031Z,1.84
2019-05-05T03:51:50.965Z,1.86
2019-05-05T03:52:50.948Z,1.86
2019-05-05T03:54:50.894Z,1.66
2019-05-05T03:56:51.058Z,1.54
2019-05-05T03:58:50.806Z,1.58
2019-05-05T03:59:50.785Z,1.48
2019-05-05T04:00:50.760Z,1.51
2019-05-05T04:01:50.737Z,1.47
2019-05-05T04:02:50.715Z,1.50
2019-05-05T04:03:50.689Z,1.51
2019-05-05T04:04:50.670Z,1.47
2019-05-05T04:05:50.647Z,1.52
2019-05-05T04:06:50.621Z,1.51
2019-05-05T04:07:50.607Z,1.48
2019-05-05T04:08:50.576Z,1.45
2019-05-05T04:09:50.555Z,1.50
2019-05-05T04:10:50.530Z,1.47
2019-05-05T04:11:50.505Z,1.48
2019-05-05T04:12:50.481Z,1.55
2019-05-05T04:13:50.466Z,1.65
2019-05-05T04:14:50.441Z,1.63
2019-05-05T04:15:50.413Z,1.70
2019-05-05T04:16:50.394Z,1.72
2019-05-05T04:17:50.369Z,1.65
2019-05-05T04:18:50.347Z,1.70
2019-05-05T04:19:50.319Z,1.76
2019-05-05T04:20:50.302Z,1.88
2019-05-05T04:21:50.277Z,1.83
2019-05-05T04:22:50.263Z,1.86
2019-05-05T04:23:50.233Z,1.86
2019-05-05T04:24:50.216Z,1.95
2019-05-05T04:25:50.189Z,2.00
2019-05-05T04:26:50.164Z,1.95
2019-05-05T04:27:50.146Z,2.03
2019-05-05T04:28:50.117Z,2.03
2019-05-05T04:29:50.097Z,1.98
2019-05-05T04:30:50.074Z,2.12
2019-05-05T04:31:50.049Z,2.12
2019-05-05T04:32:50.023Z,2.16
2019-05-05T04:33:50.005Z,2.31
2019-05-05T04:34:49.980Z,2.41
2019-05-05T04:35:49.957Z,2.56
2019-05-05T04:36:49.935Z,2.56
2019-05-05T04:37:49.910Z,2.69
2019-05-05T04:38:49.890Z,2.78
2019-05-05T04:39:49.866Z,2.81
2019-05-05T04:40:49.846Z,2.87
2019-05-05T04:41:49.821Z,2.87
2019-05-05T04:42:49.798Z,2.95
2019-05-05T04:43:49.779Z,2.96
2019-05-05T04:44:49.748Z,3.03
2019-05-05T04:45:49.737Z,3.17
2019-05-05T04:46:49.706Z,3.17
2019-05-05T04:47:49.682Z,3.31
2019-05-05T04:48:49.657Z,3.21
2019-05-05T04:49:49.638Z,3.42
2019-05-05T04:50:49.620Z,3.52
2019-05-05T04:51:50.549Z,3.55
2019-05-05T04:52:49.574Z,3.62
2019-05-05T04:53:49.548Z,3.68
2019-05-05T04:54:49.527Z,3.79
2019-05-05T04:55:49.503Z,3.87
2019-05-05T04:56:49.478Z,3.90
2019-05-05T04:57:49.454Z,3.91
2019-05-05T04:58:49.434Z,4.02
2019-05-05T04:59:49.414Z,3.97
2019-05-05T05:00:49.386Z,4.08
2019-05-05T05:01:49.365Z,4.05
2019-05-05T05:02:49.341Z,4.11
2019-05-05T05:03:49.323Z,4.24
2019-05-05T05:04:49.296Z,4.22
2019-05-05T05:05:49.274Z,4.27
2019-05-05T05:06:49.252Z,4.33
2019-05-05T05:07:49.228Z,4.33
2019-05-05T05:08:49.206Z,4.34
2019-05-05T05:09:49.187Z,4.40
2019-05-05T05:10:49.164Z,4.37
2019-05-05T05:11:49.138Z,4.44
2019-05-05T05:12:49.116Z,4.50
2019-05-05T05:13:49.097Z,4.50
2019-05-05T05:14:49.074Z,4.60
2019-05-05T05:15:49.050Z,4.59
2019-05-05T05:16:49.022Z,4.55
2019-05-05T05:17:49.003Z,4.69
2019-05-05T05:18:48.976Z,4.80
2019-05-05T05:19:48.958Z,4.86
2019-05-05T05:20:48.938Z,4.96
2019-05-05T05:21:59.438Z,5.03
2019-05-05T05:22:48.896Z,4.99
2019-05-05T05:23:48.870Z,5.07
2019-05-05T05:24:48.851Z,5.17
2019-05-05T05:25:48.820Z,5.20
2019-05-05T05:26:48.804Z,5.15
2019-05-05T05:27:48.776Z,5.24
2019-05-05T05:28:48.756Z,5.24
2019-05-05T05:29:48.734Z,5.36
2019-05-05T05:30:48.710Z,5.36
2019-05-05T05:31:48.692Z,5.40
2019-05-05T05:32:48.667Z,5.42
2019-05-05T05:33:48.645Z,5.46
2019-05-05T05:34:48.625Z,5.56
2019-05-05T05:35:48.597Z,5.63
2019-05-05T05:36:48.581Z,5.60
2019-05-05T05:37:48.554Z,5.60
2019-05-05T05:38:48.532Z,5.58
2019-05-05T05:39:48.515Z,5.71
2019-05-05T05:40:48.493Z,5.78
2019-05-05T05:41:48.465Z,5.83
2019-05-05T05:42:48.438Z,5.83
2019-05-05T05:43:48.423Z,5.91
2019-05-05T05:44:48.400Z,5.90
2019-05-05T05:45:48.375Z,6.08
2019-05-05T05:46:48.357Z,6.06
2019-05-05T05:47:48.333Z,6.15
2019-05-05T05:48:48.314Z,6.18
2019-05-05T05:49:48.287Z,6.22
2019-05-05T05:50:48.271Z,6.21
2019-05-05T05:51:48.247Z,6.36
2019-05-05T05:52:48.225Z,6.37
2019-05-05T05:53:48.196Z,6.43
2019-05-05T05:54:48.177Z,6.46
2019-05-05T05:55:48.155Z,6.51
2019-05-05T05:56:48.135Z,6.49
2019-05-05T05:57:48.112Z,6.54
2019-05-05T05:58:48.089Z,6.61
2019-05-05T05:59:48.066Z,6.62
2019-05-05T06:00:48.045Z,6.70
2019-05-05T06:01:48.029Z,6.73
2019-05-05T06:02:48.007Z,6.71
2019-05-05T06:03:47.982Z,6.81
2019-05-05T06:04:47.960Z,6.89
2019-05-05T06:05:47.934Z,6.98
2019-05-05T06:06:47.916Z,7.05
2019-05-05T06:07:47.895Z,7.07
2019-05-05T06:08:47.869Z,7.09
2019-05-05T06:09:47.849Z,7.16
2019-05-05T06:10:47.827Z,7.21
2019-05-05T06:11:47.806Z,7.28
2019-05-05T06:12:47.785Z,7.31
2019-05-05T06:13:47.757Z,7.42
2019-05-05T06:14:47.739Z,7.53
2019-05-05T06:15:47.715Z,7.52
2019-05-05T06:16:47.703Z,7.49
2019-05-05T06:17:47.671Z,7.52
2019-05-05T06:18:47.652Z,7.60
2019-05-05T06:19:47.633Z,7.71
2019-05-05T06:20:47.609Z,7.72
2019-05-05T06:21:47.597Z,7.82
2019-05-05T06:22:47.567Z,7.82
2019-05-05T06:23:47.547Z,7.89
2019-05-05T06:24:47.520Z,8.10
2019-05-05T06:25:47.498Z,8.15
2019-05-05T06:26:47.482Z,8.16
2019-05-05T06:27:47.459Z,8.20
2019-05-05T06:28:47.435Z,8.19
2019-05-05T06:29:47.421Z,8.26
2019-05-05T06:30:47.392Z,8.36
2019-05-05T06:31:47.369Z,8.41
2019-05-05T06:32:47.350Z,8.38
2019-05-05T06:33:47.327Z,8.53
2019-05-05T06:34:47.305Z,8.68
2019-05-05T06:35:47.288Z,8.74
2019-05-05T06:36:47.269Z,8.74
2019-05-05T06:37:47.241Z,8.83
2019-05-05T06:38:47.227Z,8.92
2019-05-05T06:39:47.199Z,8.95
2019-05-05T06:40:47.179Z,9.11
2019-05-05T06:41:47.158Z,9.13
2019-05-05T06:42:47.141Z,9.15
2019-05-05T06:43:47.115Z,9.20
2019-05-05T06:44:47.101Z,9.23
2019-05-05T06:45:47.077Z,9.38
2019-05-05T06:46:47.055Z,9.33
2019-05-05T06:47:47.036Z,9.47
2019-05-05T06:48:47.013Z,9.54
2019-05-05T06:49:46.991Z,9.53
2019-05-05T06:50:46.970Z,9.58
2019-05-05T06:51:46.949Z,9.64
2019-05-05T06:52:47.245Z,9.69
2019-05-05T06:53:46.912Z,9.83
2019-05-05T06:54:46.889Z,9.84
2019-05-05T06:55:46.867Z,9.89
2019-05-05T06:56:46.853Z,9.79
2019-05-05T06:57:46.828Z,9.90
2019-05-05T06:58:46.808Z,9.94
2019-05-05T06:59:46.788Z,10.01
2019-05-05T07:00:46.763Z,9.99
2019-05-05T07:01:46.749Z,10.12
2019-05-05T07:02:46.731Z,10.20
2019-05-05T07:03:46.703Z,10.27
2019-05-05T07:04:46.689Z,10.38
2019-05-05T07:05:46.671Z,10.44
2019-05-05T07:06:54.067Z,10.56
2019-05-05T07:07:46.625Z,10.78
2019-05-05T07:08:46.603Z,10.91
2019-05-05T07:09:46.586Z,11.25
2019-05-05T07:10:46.562Z,11.78
2019-05-05T07:11:46.543Z,12.19
2019-05-05T07:12:46.524Z,12.78
2019-05-05T07:13:46.504Z,13.17
2019-05-05T07:14:46.483Z,13.75
2019-05-05T07:15:46.464Z,14.51
2019-05-05T07:16:46.442Z,15.02
2019-05-05T07:17:46.421Z,15.38
2019-05-05T07:18:46.403Z,15.93
2019-05-05T07:19:46.410Z,16.33
2019-05-05T07:20:46.366Z,16.71
2019-05-05T07:21:46.353Z,17.19
2019-05-05T07:22:58.751Z,17.63
2019-05-05T07:23:46.305Z,17.96
2019-05-05T07:24:46.284Z,18.36
2019-05-05T07:25:46.273Z,18.65
2019-05-05T07:26:46.250Z,18.99
2019-05-05T07:27:46.239Z,19.26
2019-05-05T07:28:46.212Z,18.76
2019-05-05T07:29:46.400Z,18.72
2019-05-05T07:30:46.183Z,18.91
2019-05-05T07:31:46.161Z,18.90
2019-05-05T07:32:46.149Z,18.81
2019-05-05T07:33:46.131Z,19.16
2019-05-05T07:34:46.118Z,19.02
2019-05-05T07:35:55.980Z,19.36
2019-05-05T07:36:46.095Z,19.40
2019-05-05T07:37:46.073Z,19.76
2019-05-05T07:38:46.062Z,19.73
2019-05-05T07:39:46.045Z,19.47
2019-05-05T07:40:46.362Z,19.29
2019-05-05T07:41:46.019Z,19.39
2019-05-05T07:42:46.007Z,19.40
2019-05-05T07:43:45.996Z,19.37
2019-05-05T07:44:45.988Z,19.46
2019-05-05T07:45:45.971Z,19.68
2019-05-05T07:46:45.959Z,19.55
2019-05-05T07:47:47.520Z,19.37
2019-05-05T07:48:45.942Z,19.28
2019-05-05T07:49:45.925Z,19.29
2019-05-05T07:50:58.156Z,19.28
2019-05-05T07:51:45.927Z,18.85
2019-05-05T07:52:45.899Z,18.91
2019-05-05T07:53:45.893Z,18.90
2019-05-05T07:54:45.882Z,19.00
2019-05-05T07:55:45.873Z,19.22
2019-05-05T07:56:45.866Z,19.10
2019-05-05T07:57:45.852Z,19.00
2019-05-05T07:58:45.846Z,19.22
2019-05-05T07:59:45.841Z,19.16
2019-05-05T08:00:45.834Z,19.04
2019-05-05T08:01:46.663Z,18.84
2019-05-05T08:02:45.825Z,18.75
2019-05-05T08:03:45.806Z,18.52
2019-05-05T08:04:45.804Z,18.55
2019-05-05T08:05:45.794Z,18.60
2019-05-05T08:06:45.789Z,18.75
2019-05-05T08:07:45.781Z,19.04
2019-05-05T08:08:45.778Z,19.16
2019-05-05T08:09:45.777Z,19.14
2019-05-05T08:10:45.769Z,19.18
2019-05-05T08:11:45.758Z,19.39
2019-05-05T08:12:45.756Z,19.47
2019-05-05T08:13:45.754Z,19.65
2019-05-05T08:14:45.748Z,19.81
2019-05-05T08:15:56.821Z,19.94
2019-05-05T08:16:45.741Z,20.03
2019-05-05T08:17:45.740Z,20.28
2019-05-05T08:18:45.729Z,20.67
2019-05-05T08:19:45.731Z,21.28
2019-05-05T08:20:45.728Z,21.67
2019-05-05T08:21:45.725Z,21.90
2019-05-05T08:22:45.717Z,21.99
2019-05-05T08:23:45.719Z,22.36
2019-05-05T08:24:45.714Z,22.75
2019-05-05T08:25:45.702Z,22.75
2019-05-05T08:26:45.776Z,23.07
2019-05-05T08:27:45.705Z,23.73
2019-05-05T08:28:45.698Z,24.03
2019-05-05T08:29:45.693Z,24.47
2019-05-05T08:30:45.691Z,24.64
2019-05-05T08:31:45.691Z,25.00
2019-05-05T08:32:45.685Z,25.17
2019-05-05T08:33:45.683Z,24.84
2019-05-05T08:34:57.471Z,24.85
2019-05-05T08:35:45.683Z,25.36
2019-05-05T08:36:45.676Z,25.83
2019-05-05T08:37:45.682Z,26.07
2019-05-05T08:38:45.671Z,26.50
2019-05-05T08:39:45.671Z,26.75
2019-05-05T08:40:45.669Z,26.25
2019-05-05T08:41:47.419Z,26.51
2019-05-05T08:42:45.665Z,26.32
2019-05-05T08:43:45.670Z,25.98
2019-05-05T08:44:45.665Z,26.09
2019-05-05T08:45:45.664Z,26.37
2019-05-05T08:46:45.662Z,26.23
2019-05-05T08:47:45.656Z,26.33
2019-05-05T08:48:45.656Z,26.62
2019-05-05T08:49:45.657Z,26.81
2019-05-05T08:50:45.655Z,26.92
2019-05-05T08:51:45.655Z,26.87
2019-05-05T08:52:45.655Z,26.95
2019-05-05T08:53:48.331Z,26.89
2019-05-05T08:54:45.658Z,27.13
2019-05-05T08:55:45.651Z,27.02
2019-05-05T08:56:45.650Z,26.88
2019-05-05T08:57:45.647Z,26.84
2019-05-05T08:58:45.643Z,26.72
2019-05-05T08:59:45.647Z,26.52
2019-05-05T09:00:45.645Z,26.47
2019-05-05T09:01:45.649Z,26.06
2019-05-05T09:02:45.645Z,25.88
2019-05-05T09:03:45.641Z,25.28
2019-05-05T09:04:45.643Z,24.49
2019-05-05T09:05:45.641Z,23.70
2019-05-05T09:06:45.642Z,23.15
2019-05-05T09:07:45.633Z,22.47
2019-05-05T09:08:45.631Z,21.80
2019-05-05T09:09:45.631Z,21.24
2019-05-05T09:10:45.633Z,20.76
2019-05-05T09:11:45.629Z,20.41
2019-05-05T09:12:45.629Z,20.13
2019-05-05T09:13:45.626Z,19.96
2019-05-05T09:14:45.629Z,20.11
2019-05-05T09:15:45.625Z,20.88
2019-05-05T09:16:45.613Z,21.52
2019-05-05T09:17:45.611Z,22.31
2019-05-05T09:18:45.617Z,23.04
2019-05-05T09:19:45.605Z,22.73
2019-05-05T09:20:45.604Z,22.20
2019-05-05T09:21:45.599Z,21.65
2019-05-05T09:22:45.601Z,20.97
2019-05-05T09:23:59.122Z,19.94
2019-05-05T09:24:45.587Z,19.37
2019-05-05T09:25:45.584Z,18.91
2019-05-05T09:26:49.681Z,18.51
2019-05-05T09:27:45.580Z,18.21
2019-05-05T09:28:45.576Z,18.02
2019-05-05T09:29:45.571Z,17.86
2019-05-05T09:30:45.565Z,18.52
2019-05-05T09:31:45.568Z,19.36
2019-05-05T09:32:45.554Z,20.20
2019-05-05T09:33:45.548Z,20.92
2019-05-05T09:34:45.547Z,21.54
2019-05-05T09:35:45.536Z,21.96
2019-05-05T09:36:45.533Z,21.92
2019-05-05T09:37:45.529Z,21.01
2019-05-05T09:38:45.534Z,20.36
2019-05-05T09:39:45.516Z,19.68
2019-05-05T09:40:45.509Z,19.21
2019-05-05T09:41:45.504Z,18.87
2019-05-05T09:42:45.500Z,18.51
2019-05-05T09:43:45.500Z,18.39
2019-05-05T09:44:45.492Z,18.12
2019-05-05T09:45:45.480Z,17.90
2019-05-05T09:46:45.473Z,17.54
2019-05-05T09:47:45.471Z,17.49
2019-05-05T09:48:45.472Z,17.30
2019-05-05T09:49:45.460Z,17.55
2019-05-05T09:50:45.453Z,18.18
2019-05-05T09:51:45.442Z,18.57
2019-05-05T09:52:45.434Z,19.11
2019-05-05T09:53:45.437Z,19.61
2019-05-05T09:54:45.421Z,20.13
2019-05-05T09:55:45.424Z,20.67
2019-05-05T09:56:45.403Z,21.14
2019-05-05T09:57:45.397Z,21.27
2019-05-05T09:58:45.389Z,21.21
2019-05-05T09:59:45.380Z,20.67
2019-05-05T10:00:45.393Z,19.96
2019-05-05T10:01:45.375Z,19.47
2019-05-05T10:02:45.364Z,19.08
2019-05-05T10:03:45.355Z,18.80
2019-05-05T10:04:45.349Z,18.57
2019-05-05T10:05:45.344Z,18.41
2019-05-05T10:06:47.669Z,18.10
2019-05-05T10:07:45.331Z,17.89
2019-05-05T10:08:45.327Z,17.62
2019-05-05T10:09:45.315Z,17.18
2019-05-05T10:10:45.309Z,16.85
2019-05-05T10:11:45.301Z,16.61
2019-05-05T10:12:45.290Z,16.43
2019-05-05T10:13:45.280Z,16.27
2019-05-05T10:14:45.282Z,16.21
2019-05-05T10:15:45.269Z,16.52
2019-05-05T10:16:45.255Z,17.22
2019-05-05T10:17:45.246Z,17.96
2019-05-05T10:18:45.245Z,18.45
2019-05-05T10:19:45.234Z,19.18
2019-05-05T10:20:45.228Z,19.95
2019-05-05T10:21:45.226Z,20.59
2019-05-05T10:22:45.215Z,21.24
2019-05-05T10:23:45.208Z,21.21
2019-05-05T10:24:45.202Z,20.87
2019-05-05T10:25:45.199Z,20.16
2019-05-05T10:26:45.191Z,19.73
2019-05-05T10:27:47.679Z,19.54
2019-05-05T10:28:45.174Z,19.40
2019-05-05T10:29:45.176Z,19.04
2019-05-05T10:30:45.170Z,18.82
2019-05-05T10:31:45.171Z,18.60
2019-05-05T10:32:45.149Z,18.36
2019-05-05T10:33:45.146Z,18.66
2019-05-05T10:34:45.142Z,19.62
2019-05-05T10:35:45.129Z,20.54
2019-05-05T10:36:45.125Z,21.40
2019-05-05T10:37:45.121Z,22.20
2019-05-05T10:38:45.116Z,22.79
2019-05-05T10:39:45.110Z,23.13
2019-05-05T10:40:48.154Z,22.18
2019-05-05T10:41:45.098Z,21.14
2019-05-05T10:42:45.101Z,20.41
2019-05-05T10:43:45.091Z,19.80
2019-05-05T10:44:45.089Z,19.31
2019-05-05T10:45:45.086Z,18.85
2019-05-05T10:46:45.073Z,18.60
2019-05-05T10:47:45.069Z,18.21
2019-05-05T10:48:45.069Z,18.07
2019-05-05T10:49:45.053Z,17.62
2019-05-05T10:50:45.049Z,17.58
2019-05-05T10:51:45.046Z,17.44
2019-05-05T10:52:45.039Z,17.33
2019-05-05T10:53:45.031Z,17.16
2019-05-05T10:54:45.176Z,16.96
2019-05-05T10:55:45.225Z,16.66
2019-05-05T10:56:45.025Z,16.60
2019-05-05T10:57:45.004Z,16.49
2019-05-05T10:58:44.997Z,16.45
2019-05-05T10:59:44.996Z,16.58
2019-05-05T11:00:44.991Z,16.53
2019-05-05T11:01:44.975Z,16.61
2019-05-05T11:02:44.973Z,16.45
2019-05-05T11:03:44.958Z,16.33
2019-05-05T11:04:44.955Z,16.17
2019-05-05T11:05:45.265Z,16.20
2019-05-05T11:06:44.933Z,16.30
2019-05-05T11:08:30.499Z,16.33
2019-05-05T11:09:27.458Z,16.34
2019-05-05T11:10:27.445Z,16.23
2019-05-05T11:11:27.435Z,16.39
2019-05-05T11:12:27.431Z,16.45
2019-05-05T11:13:27.415Z,16.43
2019-05-05T11:14:27.410Z,16.45
2019-05-05T11:15:27.400Z,16.53
2019-05-05T11:16:27.388Z,16.66
2019-05-05T11:17:27.381Z,16.58
2019-05-05T11:18:27.377Z,16.50
2019-05-05T11:19:27.361Z,16.57
2019-05-05T11:20:27.357Z,16.66
2019-05-05T11:21:27.345Z,16.68
2019-05-05T11:22:27.345Z,17.16
2019-05-05T11:23:27.328Z,17.86
2019-05-05T11:24:27.315Z,19.25
2019-05-05T11:25:27.307Z,20.36
2019-05-05T11:26:27.311Z,21.22
2019-05-05T11:27:27.292Z,22.02
2019-05-05T11:28:27.281Z,22.97
2019-05-05T11:29:27.278Z,23.85
2019-05-05T11:30:27.268Z,24.42
2019-05-05T11:31:27.271Z,24.93
2019-05-05T11:32:27.261Z,25.35
2019-05-05T11:33:27.255Z,25.82
2019-05-05T11:34:27.250Z,26.40
2019-05-05T11:35:27.250Z,26.84
2019-05-05T11:36:27.234Z,27.29
2019-05-05T11:37:27.242Z,27.27
2019-05-05T11:38:27.229Z,27.40
2019-05-05T11:39:27.229Z,27.75
2019-05-05T11:40:27.225Z,27.46
2019-05-05T11:41:27.226Z,26.94
2019-05-05T11:42:27.224Z,26.51
2019-05-05T11:43:27.223Z,25.72
2019-05-05T11:44:27.212Z,24.93
2019-05-05T11:45:27.211Z,24.08
2019-05-05T11:46:27.210Z,23.48
2019-05-05T11:47:27.201Z,22.80
2019-05-05T11:48:27.200Z,22.02
2019-05-05T11:49:27.203Z,21.32
2019-05-05T11:50:27.200Z,20.84
2019-05-05T11:51:27.199Z,20.31
2019-05-05T11:52:27.193Z,19.78
2019-05-05T11:53:27.191Z,19.36
2019-05-05T11:54:27.190Z,18.88
2019-05-05T11:55:27.190Z,18.66
2019-05-05T11:56:27.182Z,18.27
2019-05-05T11:57:27.194Z,17.93
2019-05-05T11:58:27.171Z,17.66
2019-05-05T11:59:27.172Z,17.31
2019-05-05T12:00:27.165Z,17.12
2019-05-05T12:01:27.166Z,16.89
2019-05-05T12:02:27.155Z,16.81
2019-05-05T12:03:27.153Z,16.73
2019-05-05T12:04:27.146Z,16.91
2019-05-05T12:05:27.144Z,17.16
2019-05-05T12:06:27.137Z,17.40
2019-05-05T12:07:27.132Z,17.41
2019-05-05T12:08:27.124Z,17.52
2019-05-05T12:09:27.121Z,17.49
2019-05-05T12:10:27.113Z,17.38
2019-05-05T12:11:27.111Z,17.38
2019-05-05T12:12:27.106Z,17.49
2019-05-05T12:13:27.092Z,17.46
2019-05-05T12:14:27.422Z,17.52
2019-05-05T12:15:27.086Z,17.54
2019-05-05T12:16:27.072Z,17.70
2019-05-05T12:17:27.072Z,17.84
2019-05-05T12:18:27.064Z,18.12
2019-05-05T12:19:27.058Z,18.33
2019-05-05T12:20:27.047Z,18.52
2019-05-05T12:21:27.044Z,19.40
2019-05-05T12:22:27.037Z,20.61
2019-05-05T12:23:27.030Z,21.44
2019-05-05T12:24:27.021Z,22.25
2019-05-05T12:25:28.657Z,22.80
2019-05-05T12:26:27.011Z,23.35
2019-05-05T12:27:27.002Z,24.24
2019-05-05T12:28:26.995Z,24.77
2019-05-05T12:29:26.992Z,25.24
2019-05-05T12:30:26.998Z,25.60
2019-05-05T12:31:26.983Z,25.17
2019-05-05T12:32:26.989Z,24.47
2019-05-05T12:33:26.979Z,23.76
2019-05-05T12:34:26.973Z,23.17
2019-05-05T12:35:26.971Z,23.46
2019-05-05T12:36:26.967Z,23.63
2019-05-05T12:37:26.967Z,22.79
2019-05-05T12:38:26.960Z,21.88
2019-05-05T12:39:26.953Z,21.19
2019-05-05T12:40:26.953Z,20.74
2019-05-05T12:41:26.947Z,20.39
2019-05-05T12:42:26.949Z,20.23
2019-05-05T12:43:26.940Z,20.06
2019-05-05T12:44:26.946Z,19.81
2019-05-05T12:45:26.939Z,19.55
2019-05-05T12:46:26.932Z,19.21
2019-05-05T12:47:26.929Z,18.98
2019-05-05T12:48:26.922Z,18.84
2019-05-05T12:49:26.920Z,18.60
2019-05-05T12:50:26.917Z,18.27
2019-05-05T12:51:26.911Z,17.93
2019-05-05T12:52:26.908Z,17.66
2019-05-05T12:53:26.898Z,17.36
2019-05-05T12:54:26.903Z,16.94
2019-05-05T12:55:38.990Z,16.75
2019-05-05T12:56:26.885Z,16.66
2019-05-05T12:57:26.878Z,16.49
2019-05-05T12:58:26.876Z,16.15
2019-05-05T12:59:26.863Z,16.09
2019-05-05T13:00:26.866Z,15.83
2019-05-05T13:01:26.853Z,15.84
2019-05-05T13:02:26.850Z,15.65
2019-05-05T13:03:26.842Z,15.68
2019-05-05T13:04:26.829Z,15.62
2019-05-05T13:05:26.830Z,15.80
2019-05-05T13:06:26.819Z,15.92
2019-05-05T13:07:26.808Z,15.92
2019-05-05T13:08:26.823Z,16.05
2019-05-05T13:09:26.793Z,16.01
2019-05-05T13:10:26.783Z,16.09
2019-05-05T13:11:26.770Z,15.96
2019-05-05T13:12:26.763Z,15.93